Time;durP1;ratioP1;P1;durP2;ratioP2;P2;SDS_P1;SDS_P2;PMS_P1;PMS_P2;Temp;Humidity;BMP_temperature;BMP_pressure;BME280_temperature;BME280_humidity;BME280_pressure;Samples;Min_cycle;Max_cycle;Signal;HPM_P1;HPM_P2
2022/07/14 00:01:04;;;;;;;;;15.00;11.33;;;;;;;;5077526;28;45342;-71
2022/07/14 00:03:29;;;;;;;;;9.67;9.33;;;;;;;;5077498;28;45196;-69
2022/07/14 00:05:54;;;;;;;;;9.00;9.00;;;;;;;;5077842;28;45625;-70
2022/07/14 00:08:19;;;;;;;;;11.67;10.33;;;;;;;;5077774;28;45359;-70
2022/07/14 00:10:45;;;;;;;;;8.33;8.00;;;;;;;;5077333;28;46674;-71
2022/07/14 00:13:10;;;;;;;;;12.33;9.33;;;;;;;;5077465;28;45374;-70
2022/07/14 00:15:36;;;;;;;;;8.33;8.00;;;;;;;;5077646;28;45306;-69
2022/07/14 00:18:02;;;;;;;;;12.33;10.67;;;;;;;;5077696;28;45238;-70
2022/07/14 00:20:28;;;;;;;;;11.67;11.33;;;;;;;;5077225;28;46598;-71
2022/07/14 00:22:56;;;;;;;;;13.67;9.33;;;;;;;;5077214;28;45381;-71
2022/07/14 00:25:21;;;;;;;;;11.00;9.33;;;;;;;;5077397;28;45448;-70
2022/07/14 00:27:46;;;;;;;;;13.33;10.33;;;;;;;;5079413;28;45402;-70
2022/07/14 00:30:11;;;;;;;;;12.00;9.33;;;;;;;;5080662;28;45212;-72
2022/07/14 00:32:37;;;;;;;;;14.67;11.00;;;;;;;;5080780;28;45458;-70
2022/07/14 00:35:03;;;;;;;;;12.00;12.00;;;;;;;;5081181;28;45273;-71
2022/07/14 00:37:28;;;;;;;;;12.00;10.67;;;;;;;;5080995;28;45411;-71
2022/07/14 00:39:56;;;;;;;;;10.00;10.00;;;;;;;;5080282;28;46513;-71
2022/07/14 00:42:27;;;;;;;;;16.00;13.00;;;;;;;;5080671;28;45457;-71
2022/07/14 00:44:53;;;;;;;;;11.67;11.67;;;;;;;;5080788;28;45421;-70
2022/07/14 00:47:18;;;;;;;;;10.67;10.00;;;;;;;;5080951;28;45221;-71
2022/07/14 00:49:43;;;;;;;;;10.67;9.67;;;;;;;;5080508;28;45287;-71
2022/07/14 00:52:09;;;;;;;;;15.00;13.00;;;;;;;;5080332;28;45220;-71
2022/07/14 00:54:34;;;;;;;;;13.33;12.00;;;;;;;;5080542;28;45319;-71
2022/07/14 00:56:59;;;;;;;;;14.00;12.33;;;;;;;;5080629;28;45189;-70
2022/07/14 00:59:24;;;;;;;;;13.33;12.00;;;;;;;;5080371;28;45414;-71
2022/07/14 01:01:50;;;;;;;;;12.33;12.33;;;;;;;;5080323;28;45356;-71
2022/07/14 01:04:16;;;;;;;;;14.67;13.00;;;;;;;;5080173;28;45374;-70
2022/07/14 01:06:41;;;;;;;;;19.33;12.67;;;;;;;;5080299;28;45535;-71
2022/07/14 01:09:07;;;;;;;;;17.00;13.33;;;;;;;;5080227;28;45290;-71
2022/07/14 01:11:32;;;;;;;;;15.00;14.00;;;;;;;;5080014;28;45355;-70
2022/07/14 01:14:02;;;;;;;;;11.67;11.33;;;;;;;;5080076;28;45311;-71
2022/07/14 01:16:27;;;;;;;;;15.00;12.67;;;;;;;;5080411;28;45348;-71
2022/07/14 01:18:52;;;;;;;;;17.00;13.67;;;;;;;;5079817;28;45217;-70
2022/07/14 01:21:18;;;;;;;;;11.67;10.00;;;;;;;;5080014;28;45320;-71
2022/07/14 01:23:43;;;;;;;;;12.67;9.33;;;;;;;;5080158;28;45304;-70
2022/07/14 01:26:08;;;;;;;;;12.00;12.00;;;;;;;;5080154;28;45513;-70
2022/07/14 01:28:33;;;;;;;;;13.33;10.33;;;;;;;;5079794;28;45505;-70
2022/07/14 01:30:58;;;;;;;;;16.00;10.67;;;;;;;;5079982;28;45287;-71
2022/07/14 01:33:24;;;;;;;;;14.67;12.00;;;;;;;;5079788;28;45438;-70
2022/07/14 01:35:49;;;;;;;;;11.67;9.67;;;;;;;;5080108;28;45336;-70
2022/07/14 01:38:16;;;;;;;;;12.33;10.33;;;;;;;;5079218;28;46225;-71
2022/07/14 01:40:41;;;;;;;;;12.33;12.33;;;;;;;;5079579;28;45416;-71
2022/07/14 01:43:07;;;;;;;;;15.33;12.67;;;;;;;;5079812;28;45833;-71
2022/07/14 01:45:34;;;;;;;;;11.00;11.00;;;;;;;;5079891;28;45475;-70
2022/07/14 01:47:59;;;;;;;;;10.00;10.00;;;;;;;;5079366;28;46677;-70
2022/07/14 01:50:25;;;;;;;;;17.33;13.00;;;;;;;;5079558;28;45469;-71
2022/07/14 01:52:50;;;;;;;;;10.00;10.00;;;;;;;;5079644;28;45320;-71
2022/07/14 01:55:15;;;;;;;;;15.67;10.33;;;;;;;;5079634;28;45420;-70
2022/07/14 01:57:41;;;;;;;;;9.33;8.67;;;;;;;;5079348;28;46192;-71
2022/07/14 02:00:07;;;;;;;;;11.33;10.00;;;;;;;;5079566;28;45410;-70
2022/07/14 02:02:32;;;;;;;;;10.33;9.33;;;;;;;;5061392;28;45281;-71
2022/07/14 02:04:57;;;;;;;;;10.67;9.67;;;;;;;;5079241;28;45402;-70
2022/07/14 02:07:22;;;;;;;;;12.33;9.67;;;;;;;;5079423;28;46323;-71
2022/07/14 02:12:31;;;;;;;;;11.33;8.33;;;;;;;;5078995;28;45629;-72
2022/07/14 02:14:56;;;;;;;;;12.33;7.33;;;;;;;;5079585;28;45445;-72
2022/07/14 02:17:22;;;;;;;;;11.00;10.00;;;;;;;;5079011;28;46587;-72
2022/07/14 02:19:47;;;;;;;;;11.00;8.67;;;;;;;;5079093;28;45387;-72
2022/07/14 02:22:12;;;;;;;;;8.67;8.00;;;;;;;;5079387;28;45185;-72
2022/07/14 02:24:37;;;;;;;;;16.33;9.67;;;;;;;;5079116;28;45418;-72
2022/07/14 02:27:03;;;;;;;;;9.00;8.00;;;;;;;;5079166;28;46151;-71
2022/07/14 02:29:28;;;;;;;;;9.00;9.00;;;;;;;;5078892;28;45256;-72
2022/07/14 02:31:53;;;;;;;;;9.33;8.33;;;;;;;;5078841;28;45277;-72
2022/07/14 02:34:18;;;;;;;;;9.00;8.33;;;;;;;;5079230;28;45561;-72
2022/07/14 02:36:44;;;;;;;;;9.33;8.00;;;;;;;;5078718;28;46562;-71
2022/07/14 02:39:09;;;;;;;;;6.33;6.33;;;;;;;;5078759;28;45351;-72
2022/07/14 02:41:34;;;;;;;;;9.67;7.67;;;;;;;;5078921;28;45459;-72
2022/07/14 02:43:59;;;;;;;;;10.00;8.00;;;;;;;;5079071;28;45742;-72
2022/07/14 02:46:26;;;;;;;;;7.67;6.67;;;;;;;;5078605;28;46309;-72
2022/07/14 02:48:51;;;;;;;;;5.00;5.00;;;;;;;;5078405;28;45282;-71
2022/07/14 02:51:16;;;;;;;;;9.00;6.00;;;;;;;;5078113;28;45213;-72
2022/07/14 02:53:41;;;;;;;;;6.33;4.00;;;;;;;;5078530;28;45315;-71
2022/07/14 02:56:07;;;;;;;;;5.00;5.00;;;;;;;;5078460;28;45464;-71
2022/07/14 02:58:33;;;;;;;;;5.00;5.00;;;;;;;;5078572;28;45344;-73
2022/07/14 03:00:58;;;;;;;;;5.00;5.00;;;;;;;;5078601;28;45370;-71
2022/07/14 03:03:24;;;;;;;;;6.33;4.67;;;;;;;;5078902;28;45336;-73
2022/07/14 03:05:50;;;;;;;;;5.67;5.67;;;;;;;;5078292;28;45574;-72
2022/07/14 03:08:15;;;;;;;;;7.00;7.00;;;;;;;;5078180;28;45283;-71
2022/07/14 03:10:41;;;;;;;;;6.67;5.00;;;;;;;;5078511;28;45402;-72
2022/07/14 03:13:06;;;;;;;;;8.33;5.67;;;;;;;;5078378;28;45552;-71
2022/07/14 03:15:32;;;;;;;;;4.67;4.00;;;;;;;;5078149;28;46373;-71
2022/07/14 03:17:57;;;;;;;;;5.33;5.33;;;;;;;;5078174;28;45308;-71
2022/07/14 03:20:22;;;;;;;;;5.00;5.00;;;;;;;;5078216;28;45216;-71
2022/07/14 03:22:48;;;;;;;;;5.67;4.33;;;;;;;;5078502;28;45340;-70
2022/07/14 03:25:13;;;;;;;;;5.67;5.33;;;;;;;;5077920;28;46251;-71
2022/07/14 03:27:40;;;;;;;;;4.00;4.00;;;;;;;;5078098;28;45416;-71
2022/07/14 03:30:06;;;;;;;;;10.00;6.00;;;;;;;;5078189;28;45213;-71
2022/07/14 03:32:31;;;;;;;;;7.00;7.00;;;;;;;;5078119;28;45499;-72
2022/07/14 03:34:57;;;;;;;;;6.00;4.67;;;;;;;;5077958;28;45657;-72
2022/07/14 03:37:22;;;;;;;;;4.33;4.33;;;;;;;;5077963;28;45320;-71
2022/07/14 03:39:48;;;;;;;;;5.00;5.00;;;;;;;;5078221;28;45305;-71
2022/07/14 03:42:13;;;;;;;;;7.00;6.00;;;;;;;;5077878;28;45382;-71
2022/07/14 03:44:38;;;;;;;;;6.67;6.00;;;;;;;;5077685;28;46527;-72
2022/07/14 03:47:03;;;;;;;;;8.00;7.00;;;;;;;;5077853;28;45445;-71
2022/07/14 03:49:29;;;;;;;;;7.33;5.67;;;;;;;;5077840;28;45317;-72
2022/07/14 03:51:54;;;;;;;;;7.00;6.33;;;;;;;;5077591;28;45238;-72
2022/07/14 03:54:19;;;;;;;;;6.33;6.33;;;;;;;;5076782;28;45532;-72
2022/07/14 03:56:44;;;;;;;;;6.33;6.00;;;;;;;;5077275;28;45344;-71
2022/07/14 03:59:10;;;;;;;;;6.00;6.00;;;;;;;;5077923;28;45354;-70
2022/07/14 04:01:37;;;;;;;;;10.33;7.67;;;;;;;;5077548;28;45482;-71
2022/07/14 04:04:03;;;;;;;;;7.00;7.00;;;;;;;;5077550;28;45356;-72
2022/07/14 04:06:28;;;;;;;;;7.33;7.33;;;;;;;;5077467;28;45534;-72
2022/07/14 04:08:54;;;;;;;;;7.67;6.00;;;;;;;;5077463;28;45335;-71
2022/07/14 04:11:19;;;;;;;;;7.33;7.33;;;;;;;;5077498;28;45445;-71
2022/07/14 04:13:45;;;;;;;;;10.00;5.00;;;;;;;;5077530;28;46180;-72
2022/07/14 04:16:11;;;;;;;;;6.67;6.67;;;;;;;;5077699;28;45413;-72
2022/07/14 04:18:36;;;;;;;;;9.00;6.33;;;;;;;;5077480;28;45333;-71
2022/07/14 04:21:01;;;;;;;;;6.33;5.00;;;;;;;;5077848;28;45227;-71
2022/07/14 04:23:26;;;;;;;;;5.00;5.00;;;;;;;;5077155;28;45446;-71
2022/07/14 04:25:51;;;;;;;;;5.33;4.33;;;;;;;;5077591;28;45506;-71
2022/07/14 04:28:17;;;;;;;;;4.00;4.00;;;;;;;;5077352;28;45269;-71
2022/07/14 04:30:42;;;;;;;;;6.00;6.00;;;;;;;;5077451;28;45577;-72
2022/07/14 04:33:11;;;;;;;;;4.00;4.00;;;;;;;;5077041;28;45542;-71
2022/07/14 04:35:37;;;;;;;;;5.33;5.33;;;;;;;;5077061;28;45287;-71
2022/07/14 04:38:03;;;;;;;;;7.00;6.00;;;;;;;;5077353;28;45478;-71
2022/07/14 04:40:28;;;;;;;;;4.67;4.67;;;;;;;;5077582;28;45245;-71
2022/07/14 04:42:54;;;;;;;;;4.00;4.00;;;;;;;;5076788;28;46963;-72
2022/07/14 04:45:20;;;;;;;;;5.00;5.00;;;;;;;;5077133;28;45388;-71
2022/07/14 04:47:45;;;;;;;;;6.67;5.00;;;;;;;;5077132;28;45428;-71
2022/07/14 04:52:54;;;;;;;;;5.67;4.67;;;;;;;;5075942;28;45687;-71
2022/07/14 04:55:19;;;;;;;;;7.00;6.00;;;;;;;;5076858;28;45336;-71
2022/07/14 04:57:44;;;;;;;;;6.00;4.67;;;;;;;;5076787;28;45303;-72
2022/07/14 05:00:10;;;;;;;;;6.00;5.00;;;;;;;;5077171;28;45284;-70
2022/07/14 05:02:36;;;;;;;;;6.00;5.33;;;;;;;;5076596;28;47611;-71
2022/07/14 05:05:01;;;;;;;;;5.00;4.33;;;;;;;;5076817;28;45263;-71
2022/07/14 05:07:27;;;;;;;;;6.33;6.33;;;;;;;;5077543;28;45278;-71
2022/07/14 05:09:52;;;;;;;;;7.00;5.33;;;;;;;;5076659;28;45460;-72
2022/07/14 05:12:18;;;;;;;;;7.00;6.67;;;;;;;;5076789;28;45442;-71
2022/07/14 05:14:43;;;;;;;;;5.00;5.00;;;;;;;;5079948;28;45264;-70
2022/07/14 05:17:09;;;;;;;;;4.67;4.33;;;;;;;;5080518;28;45435;-72
2022/07/14 05:19:34;;;;;;;;;6.67;5.00;;;;;;;;5080474;28;45491;-72
2022/07/14 05:21:59;;;;;;;;;4.00;3.67;;;;;;;;5079694;28;47055;-71
2022/07/14 05:24:24;;;;;;;;;7.00;6.67;;;;;;;;5080155;28;45402;-71
2022/07/14 05:26:50;;;;;;;;;8.67;6.00;;;;;;;;5079955;28;45564;-71
2022/07/14 05:29:15;;;;;;;;;7.00;7.00;;;;;;;;5080180;28;45394;-71
2022/07/14 05:31:40;;;;;;;;;5.00;4.00;;;;;;;;5079645;28;47078;-71
2022/07/14 05:34:06;;;;;;;;;6.67;6.67;;;;;;;;5079699;28;45204;-72
2022/07/14 05:36:31;;;;;;;;;7.67;5.00;;;;;;;;5079831;28;45417;-71
2022/07/14 05:38:56;;;;;;;;;7.67;6.67;;;;;;;;5080236;28;45301;-72
2022/07/14 05:41:22;;;;;;;;;7.00;5.67;;;;;;;;5080030;28;46178;-71
2022/07/14 05:43:47;;;;;;;;;7.33;6.00;;;;;;;;5079586;28;45451;-71
2022/07/14 05:46:12;;;;;;;;;5.00;5.00;;;;;;;;5079789;28;45225;-71
2022/07/14 05:48:38;;;;;;;;;8.00;7.00;;;;;;;;5079903;28;45432;-71
2022/07/14 05:51:14;;;;;;;;;9.00;6.00;;;;;;;;5079344;28;45866;-71
2022/07/14 05:53:40;;;;;;;;;5.67;5.00;;;;;;;;5079562;28;45325;-71
2022/07/14 05:56:05;;;;;;;;;5.33;5.33;;;;;;;;5079520;28;45389;-70
2022/07/14 05:58:31;;;;;;;;;10.00;6.00;;;;;;;;5079471;28;45325;-71
2022/07/14 06:00:57;;;;;;;;;8.67;7.00;;;;;;;;5079113;28;46269;-70
2022/07/14 06:03:22;;;;;;;;;9.33;7.67;;;;;;;;5061148;28;45372;-71
2022/07/14 06:05:48;;;;;;;;;6.00;6.00;;;;;;;;5079534;28;45418;-70
2022/07/14 06:08:13;;;;;;;;;8.33;7.00;;;;;;;;5079596;28;45389;-70
2022/07/14 06:10:38;;;;;;;;;5.00;5.00;;;;;;;;5078988;28;46221;-71
2022/07/14 06:13:03;;;;;;;;;8.00;8.00;;;;;;;;5079150;28;45480;-71
2022/07/14 06:15:29;;;;;;;;;8.00;6.67;;;;;;;;5079399;28;45415;-71
2022/07/14 06:17:54;;;;;;;;;8.00;7.00;;;;;;;;5079524;28;45577;-72
2022/07/14 06:20:20;;;;;;;;;7.00;7.00;;;;;;;;5078893;28;45368;-71
2022/07/14 06:22:45;;;;;;;;;8.00;6.67;;;;;;;;5078987;28;45396;-71
2022/07/14 06:25:10;;;;;;;;;7.33;7.33;;;;;;;;5079366;28;45490;-71
2022/07/14 06:27:36;;;;;;;;;6.33;6.33;;;;;;;;5079229;28;45831;-71
2022/07/14 06:30:05;;;;;;;;;4.33;4.33;;;;;;;;5078926;28;46389;-73
2022/07/14 06:32:30;;;;;;;;;5.67;5.33;;;;;;;;5078607;28;45459;-73
2022/07/14 06:34:55;;;;;;;;;8.00;6.00;;;;;;;;5078969;28;45310;-72
2022/07/14 06:37:21;;;;;;;;;6.67;5.67;;;;;;;;5079282;28;45407;-71
2022/07/14 06:39:46;;;;;;;;;4.67;4.67;;;;;;;;5075483;28;46279;-71
2022/07/14 06:42:13;;;;;;;;;7.00;6.00;;;;;;;;5072860;28;45366;-71
2022/07/14 06:44:38;;;;;;;;;7.00;5.67;;;;;;;;5073329;27;45453;-71
2022/07/14 06:47:04;;;;;;;;;8.00;5.00;;;;;;;;5072309;28;45476;-71
2022/07/14 06:49:29;;;;;;;;;5.33;4.33;;;;;;;;5072262;28;45860;-71
2022/07/14 06:51:54;;;;;;;;;5.67;5.67;;;;;;;;5073254;28;45494;-71
2022/07/14 06:54:19;;;;;;;;;7.67;6.33;;;;;;;;5074407;28;45723;-72
2022/07/14 06:56:44;;;;;;;;;4.67;4.67;;;;;;;;5073962;27;45642;-71
2022/07/14 06:59:10;;;;;;;;;6.00;5.00;;;;;;;;5073894;28;46097;-71
2022/07/14 07:01:35;;;;;;;;;6.67;6.00;;;;;;;;5075302;28;45370;-71
2022/07/14 07:04:00;;;;;;;;;6.00;4.00;;;;;;;;5076357;27;45554;-71
2022/07/14 07:06:44;;;;;;;;;4.00;4.00;;;;;;;;5076463;28;45454;-71
2022/07/14 07:09:09;;;;;;;;;10.33;6.00;;;;;;;;5075998;28;45473;-71
2022/07/14 07:11:35;;;;;;;;;6.67;6.67;;;;;;;;5075629;28;45566;-72
2022/07/14 07:14:01;;;;;;;;;9.00;7.00;;;;;;;;5075943;28;45431;-71
2022/07/14 07:16:26;;;;;;;;;5.00;5.00;;;;;;;;5076158;28;45512;-71
2022/07/14 07:18:51;;;;;;;;;3.67;3.67;;;;;;;;5075866;28;46908;-71
2022/07/14 07:21:20;;;;;;;;;5.67;5.67;;;;;;;;5075490;28;45367;-71
2022/07/14 07:23:46;;;;;;;;;7.00;5.67;;;;;;;;5075531;27;45428;-71
2022/07/14 07:26:12;;;;;;;;;10.67;6.67;;;;;;;;5076129;28;45431;-71
2022/07/14 07:28:38;;;;;;;;;5.00;5.00;;;;;;;;5075610;28;46108;-72
2022/07/14 07:31:03;;;;;;;;;2.33;2.33;;;;;;;;5075710;28;45427;-71
2022/07/14 07:33:28;;;;;;;;;7.00;5.00;;;;;;;;5075569;28;45609;-72
2022/07/14 07:35:53;;;;;;;;;4.00;4.00;;;;;;;;5075028;28;45424;-72
2022/07/14 07:38:19;;;;;;;;;5.00;5.00;;;;;;;;5075465;28;45673;-71
2022/07/14 07:40:47;;;;;;;;;6.67;6.00;;;;;;;;5075197;28;45379;-70
2022/07/14 07:43:12;;;;;;;;;5.67;5.67;;;;;;;;5075230;28;45795;-72
2022/07/14 07:45:37;;;;;;;;;6.00;6.00;;;;;;;;5075883;28;45371;-71
2022/07/14 07:48:04;;;;;;;;;5.33;5.33;;;;;;;;5075400;28;45691;-70
2022/07/14 07:50:29;;;;;;;;;6.00;3.00;;;;;;;;5075053;28;45315;-71
2022/07/14 07:52:55;;;;;;;;;4.00;4.00;;;;;;;;5075652;28;45409;-70
2022/07/14 07:55:20;;;;;;;;;6.00;5.00;;;;;;;;5075524;28;45304;-70
2022/07/14 07:57:45;;;;;;;;;5.00;5.00;;;;;;;;5075173;28;47074;-71
2022/07/14 08:00:11;;;;;;;;;7.00;4.67;;;;;;;;5075274;28;45349;-73
2022/07/14 08:02:43;;;;;;;;;6.00;4.00;;;;;;;;5075597;28;45476;-73
2022/07/14 08:05:08;;;;;;;;;5.67;5.67;;;;;;;;5075192;28;45372;-74
2022/07/14 08:07:33;;;;;;;;;4.00;2.00;;;;;;;;5075060;28;46075;-73
2022/07/14 08:09:58;;;;;;;;;4.33;4.33;;;;;;;;5075356;28;45379;-72
2022/07/14 08:12:24;;;;;;;;;4.00;4.00;;;;;;;;5075336;28;45463;-75
2022/07/14 08:14:50;;;;;;;;;5.67;5.67;;;;;;;;5074750;28;45359;-74
2022/07/14 08:17:19;;;;;;;;;6.00;4.00;;;;;;;;5075112;28;47482;-74
2022/07/14 08:19:44;;;;;;;;;6.33;3.33;;;;;;;;5075103;28;45432;-71
2022/07/14 08:22:10;;;;;;;;;3.00;3.00;;;;;;;;5075135;28;45388;-73
2022/07/14 08:24:35;;;;;;;;;2.00;2.00;;;;;;;;5075318;28;45434;-74
2022/07/14 08:27:00;;;;;;;;;3.00;3.00;;;;;;;;5075001;28;46067;-73
2022/07/14 08:29:25;;;;;;;;;3.00;3.00;;;;;;;;5075060;28;45402;-73
2022/07/14 08:31:51;;;;;;;;;2.67;2.67;;;;;;;;5075123;28;46531;-73
2022/07/14 08:34:16;;;;;;;;;3.33;3.33;;;;;;;;5075107;28;45292;-75
2022/07/14 08:36:41;;;;;;;;;8.33;4.00;;;;;;;;5074523;28;45906;-74
2022/07/14 08:39:08;;;;;;;;;7.33;4.00;;;;;;;;5074608;28;45399;-72
2022/07/14 08:41:33;;;;;;;;;4.00;3.00;;;;;;;;5075097;28;45371;-73
2022/07/14 08:43:59;;;;;;;;;4.00;3.00;;;;;;;;5074662;28;45766;-73
2022/07/14 08:46:25;;;;;;;;;3.33;3.33;;;;;;;;5074277;28;46699;-73
2022/07/14 08:48:52;;;;;;;;;4.33;4.00;;;;;;;;5076897;28;45436;-73
2022/07/14 08:51:17;;;;;;;;;4.67;4.33;;;;;;;;5078103;28;45502;-74
2022/07/14 08:53:43;;;;;;;;;5.00;5.00;;;;;;;;5078400;28;45554;-73
2022/07/14 08:56:08;;;;;;;;;4.33;4.00;;;;;;;;5077807;28;46349;-74
2022/07/14 08:58:34;;;;;;;;;3.33;3.33;;;;;;;;5077848;28;45510;-75
2022/07/14 09:00:59;;;;;;;;;6.33;4.00;;;;;;;;5078428;28;46008;-72
2022/07/14 09:03:24;;;;;;;;;4.00;3.00;;;;;;;;5078328;28;45411;-71
2022/07/14 09:05:50;;;;;;;;;4.67;3.33;;;;;;;;5078523;27;45583;-72
2022/07/14 09:08:16;;;;;;;;;6.67;4.67;;;;;;;;5077503;28;45513;-73
2022/07/14 09:10:43;;;;;;;;;5.33;4.00;;;;;;;;5077934;28;45831;-74
2022/07/14 09:13:19;;;;;;;;;3.67;3.67;;;;;;;;5078240;28;45549;-73
2022/07/14 09:15:45;;;;;;;;;5.00;3.67;;;;;;;;5077782;28;46260;-73
2022/07/14 09:18:37;;;;;;;;;4.67;4.00;;;;;;;;5077553;28;45327;-75
2022/07/14 09:21:18;;;;;;;;;4.00;4.00;;;;;;;;5075920;27;45427;-72
2022/07/14 09:23:44;;;;;;;;;5.33;5.33;;;;;;;;5078099;28;45495;-71
2022/07/14 09:26:10;;;;;;;;;6.00;6.00;;;;;;;;5077726;28;46141;-69
2022/07/14 09:28:39;;;;;;;;;6.00;4.00;;;;;;;;5077085;28;45442;-71
2022/07/14 09:31:17;;;;;;;;;5.33;5.33;;;;;;;;5077780;28;45574;-70
2022/07/14 09:33:42;;;;;;;;;5.67;5.67;;;;;;;;5077745;28;45370;-69
2022/07/14 09:36:19;;;;;;;;;6.00;5.00;;;;;;;;5077576;28;46161;-68
2022/07/14 09:38:47;;;;;;;;;7.00;7.00;;;;;;;;5076978;28;45383;-68
2022/07/14 09:41:12;;;;;;;;;5.33;5.00;;;;;;;;5077801;28;45459;-68
2022/07/14 09:43:37;;;;;;;;;8.00;4.67;;;;;;;;5077644;28;45327;-74
2022/07/14 09:46:04;;;;;;;;;6.33;5.33;;;;;;;;5076961;28;47128;-72
2022/07/14 09:48:29;;;;;;;;;5.00;5.00;;;;;;;;5077215;28;45373;-72
2022/07/14 09:51:00;;;;;;;;;7.33;6.00;;;;;;;;5077270;28;45459;-74
2022/07/14 09:53:29;;;;;;;;;8.67;7.33;;;;;;;;5076710;27;45684;-73
2022/07/14 09:55:58;;;;;;;;;8.67;6.67;;;;;;;;5077053;28;47197;-74
2022/07/14 09:58:40;;;;;;;;;10.67;7.33;;;;;;;;5076682;28;45505;-72
2022/07/14 10:01:09;;;;;;;;;7.33;5.33;;;;;;;;5076840;28;45296;-72
2022/07/14 10:03:35;;;;;;;;;5.67;5.67;;;;;;;;5077525;28;45463;-71
2022/07/14 10:06:02;;;;;;;;;3.67;3.67;;;;;;;;5076845;27;47550;-72
2022/07/14 10:08:29;;;;;;;;;6.67;5.33;;;;;;;;5077127;28;45434;-72
2022/07/14 10:10:55;;;;;;;;;7.33;5.67;;;;;;;;5076577;28;45517;-74
2022/07/14 10:13:21;;;;;;;;;5.00;5.00;;;;;;;;5077235;28;45377;-75
2022/07/14 10:15:48;;;;;;;;;7.33;5.67;;;;;;;;5076599;28;47046;-73
2022/07/14 10:18:13;;;;;;;;;7.33;6.00;;;;;;;;5076838;28;45647;-77
2022/07/14 10:20:40;;;;;;;;;5.00;5.00;;;;;;;;5076867;28;45363;-80
2022/07/14 10:23:05;;;;;;;;;7.33;6.33;;;;;;;;5077227;28;45813;-80
2022/07/14 10:25:31;;;;;;;;;4.00;3.67;;;;;;;;5076690;28;45902;-80
2022/07/14 10:27:57;;;;;;;;;3.67;2.67;;;;;;;;5076921;28;45816;-78
2022/07/14 10:30:30;;;;;;;;;5.67;4.00;;;;;;;;5076603;28;45445;-78
2022/07/14 10:33:02;;;;;;;;;5.75;5.75;;;;;;;;5076704;28;45421;-80
2022/07/14 10:35:29;;;;;;;;;4.75;4.50;;;;;;;;5076456;28;46242;-83
2022/07/14 10:38:07;;;;;;;;;7.00;3.75;;;;;;;;5076764;28;45442;-78
2022/07/14 10:40:47;;;;;;;;;3.25;3.25;;;;;;;;5076207;28;45830;-76
2022/07/14 10:43:15;;;;;;;;;6.75;6.50;;;;;;;;5076254;28;45382;-76
2022/07/14 10:45:54;;;;;;;;;3.25;3.25;;;;;;;;5076377;28;46517;-76
2022/07/14 10:48:26;;;;;;;;;6.00;6.00;;;;;;;;5076444;28;45486;-75
2022/07/14 10:51:11;;;;;;;;;5.67;5.67;;;;;;;;5076547;28;45382;-74
2022/07/14 10:53:55;;;;;;;;;6.00;4.67;;;;;;;;5075872;27;45538;-73
2022/07/14 10:56:27;;;;;;;;;9.00;6.00;;;;;;;;5076248;28;46274;-74
2022/07/14 10:59:10;;;;;;;;;7.00;5.00;;;;;;;;5076334;28;45483;-74
2022/07/14 11:01:36;;;;;;;;;6.67;6.67;;;;;;;;5076250;28;45752;-73
2022/07/14 11:04:01;;;;;;;;;6.67;5.67;;;;;;;;5075835;28;45480;-73
2022/07/14 11:06:27;;;;;;;;;5.00;5.00;;;;;;;;5076193;28;45390;-73
2022/07/14 11:09:11;;;;;;;;;8.33;7.00;;;;;;;;5076224;28;45375;-76
2022/07/14 11:11:37;;;;;;;;;8.67;7.33;;;;;;;;5075045;28;45453;-78
2022/07/14 11:14:13;;;;;;;;;7.33;7.00;;;;;;;;5076436;27;45485;-79
2022/07/14 11:16:47;;;;;;;;;6.67;6.67;;;;;;;;5075150;28;46268;-78
2022/07/14 11:19:23;;;;;;;;;8.33;6.00;;;;;;;;5074547;28;45410;-75
2022/07/14 11:22:07;;;;;;;;;6.00;6.00;;;;;;;;5075151;28;45450;-76
2022/07/14 11:24:33;;;;;;;;;6.33;6.00;;;;;;;;5074821;28;45403;-73
2022/07/14 11:27:18;;;;;;;;;10.00;9.33;;;;;;;;5076898;28;47425;-73
2022/07/14 11:29:43;;;;;;;;;8.67;8.00;;;;;;;;5076608;28;45442;-73
2022/07/14 11:32:27;;;;;;;;;9.00;8.67;;;;;;;;5076802;28;45494;-72
2022/07/14 11:37:56;;;;;;;;;6.33;6.33;;;;;;;;5074413;28;45487;-72
2022/07/14 11:40:41;;;;;;;;;7.67;7.00;;;;;;;;5073329;28;45650;-73
2022/07/14 11:43:24;;;;;;;;;9.00;7.00;;;;;;;;5074487;28;45454;-73
2022/07/14 11:45:56;;;;;;;;;9.67;8.00;;;;;;;;5073893;28;45384;-72
2022/07/14 11:48:21;;;;;;;;;7.33;7.00;;;;;;;;5073924;28;45963;-74
2022/07/14 11:50:48;;;;;;;;;10.00;9.00;;;;;;;;5074178;28;45465;-74
2022/07/14 11:53:15;;;;;;;;;8.00;7.00;;;;;;;;5073999;28;45514;-75
2022/07/14 11:55:40;;;;;;;;;11.67;10.00;;;;;;;;5074225;28;45431;-74
2022/07/14 11:58:06;;;;;;;;;11.33;10.67;;;;;;;;5073942;28;46128;-71
2022/07/14 12:00:31;;;;;;;;;14.00;14.00;;;;;;;;5073243;28;45431;-75
2022/07/14 12:02:59;;;;;;;;;12.00;9.00;;;;;;;;5074297;28;45362;-76
2022/07/14 12:05:25;;;;;;;;;27.33;20.67;;;;;;;;5073705;28;45603;-76
2022/07/14 12:07:53;;;;;;;;;5.67;5.67;;;;;;;;5073970;28;45429;-77
2022/07/14 12:10:38;;;;;;;;;11.67;11.67;;;;;;;;5073766;28;45548;-73
2022/07/14 12:13:03;;;;;;;;;10.67;9.67;;;;;;;;5074436;28;45470;-72
2022/07/14 12:15:29;;;;;;;;;28.67;22.33;;;;;;;;5075803;28;45424;-74
2022/07/14 12:17:55;;;;;;;;;17.33;17.33;;;;;;;;5075731;28;46167;-75
2022/07/14 12:20:21;;;;;;;;;17.33;17.33;;;;;;;;5075645;28;45701;-75
2022/07/14 12:22:54;;;;;;;;;13.33;13.33;;;;;;;;5077660;28;45343;-74
2022/07/14 12:25:31;;;;;;;;;22.67;16.67;;;;;;;;5079886;28;45403;-74
2022/07/14 12:27:56;;;;;;;;;18.67;17.67;;;;;;;;5078674;28;46474;-73
2022/07/14 12:30:22;;;;;;;;;13.00;11.33;;;;;;;;5077631;28;45369;-73
2022/07/14 12:32:54;;;;;;;;;10.33;10.33;;;;;;;;5077601;28;45378;-75
2022/07/14 12:35:20;;;;;;;;;18.33;14.33;;;;;;;;5079380;28;45553;-76
2022/07/14 12:37:45;;;;;;;;;10.67;8.67;;;;;;;;5078627;28;45393;-78
2022/07/14 12:40:12;;;;;;;;;9.33;8.67;;;;;;;;5078613;28;45442;-78
2022/07/14 12:42:37;;;;;;;;;11.00;8.33;;;;;;;;5079231;28;45454;-75
2022/07/14 12:45:03;;;;;;;;;10.00;8.33;;;;;;;;5079052;28;45316;-76
2022/07/14 12:47:29;;;;;;;;;14.67;12.00;;;;;;;;5077419;28;46437;-78
2022/07/14 12:49:54;;;;;;;;;10.00;8.00;;;;;;;;5079614;28;45583;-76
2022/07/14 12:52:20;;;;;;;;;8.67;8.00;;;;;;;;5079196;28;45378;-75
2022/07/14 12:54:45;;;;;;;;;10.33;8.67;;;;;;;;5079650;28;45319;-75
2022/07/14 12:57:18;;;;;;;;;7.67;7.67;;;;;;;;5079788;28;46295;-73
2022/07/14 12:59:44;;;;;;;;;8.33;8.33;;;;;;;;5078714;28;45774;-76
2022/07/14 13:02:10;;;;;;;;;9.67;8.00;;;;;;;;5079254;28;45426;-75
2022/07/14 13:04:41;;;;;;;;;8.00;8.00;;;;;;;;5079339;28;45393;-75
2022/07/14 13:07:20;;;;;;;;;6.67;6.67;;;;;;;;5079212;28;46486;-76
2022/07/14 13:10:04;;;;;;;;;9.00;8.00;;;;;;;;5079184;28;45382;-74
2022/07/14 13:12:29;;;;;;;;;9.67;8.33;;;;;;;;5078830;28;45378;-75
2022/07/14 13:14:56;;;;;;;;;6.67;5.67;;;;;;;;5079360;28;45493;-75
2022/07/14 13:17:41;;;;;;;;;10.33;8.00;;;;;;;;5078563;28;47466;-74
2022/07/14 13:20:26;;;;;;;;;8.67;8.67;;;;;;;;5078001;28;45403;-76
2022/07/14 13:22:55;;;;;;;;;12.33;9.00;;;;;;;;5077845;28;45383;-79
2022/07/14 13:25:21;;;;;;;;;11.33;8.33;;;;;;;;5078565;28;45646;-76
2022/07/14 13:27:46;;;;;;;;;9.33;7.00;;;;;;;;5077767;28;46690;-75
2022/07/14 13:30:12;;;;;;;;;8.67;7.33;;;;;;;;5078630;28;45657;-78
2022/07/14 13:32:37;;;;;;;;;8.67;8.33;;;;;;;;5078258;28;45478;-74
2022/07/14 13:35:02;;;;;;;;;9.33;8.00;;;;;;;;5077854;28;45799;-73
2022/07/14 13:37:28;;;;;;;;;9.00;7.33;;;;;;;;5078576;28;46397;-74
2022/07/14 13:39:54;;;;;;;;;7.00;7.00;;;;;;;;5077758;28;45486;-82
2022/07/14 13:42:19;;;;;;;;;8.00;8.00;;;;;;;;5078191;28;45368;-77
2022/07/14 13:44:44;;;;;;;;;7.33;6.67;;;;;;;;5078604;28;45459;-73
2022/07/14 13:47:09;;;;;;;;;6.00;6.00;;;;;;;;5077442;28;45430;-76
2022/07/14 13:52:18;;;;;;;;;5.00;5.00;;;;;;;;5077530;28;45529;-76
2022/07/14 13:54:43;;;;;;;;;4.33;4.33;;;;;;;;5077926;28;45601;-77
2022/07/14 13:57:09;;;;;;;;;5.00;4.67;;;;;;;;5077821;28;45725;-77
2022/07/14 13:59:34;;;;;;;;;5.00;4.67;;;;;;;;5077618;28;45447;-77
2022/07/14 14:01:59;;;;;;;;;4.33;4.33;;;;;;;;5077458;28;45826;-79
2022/07/14 14:04:24;;;;;;;;;4.67;4.67;;;;;;;;5077838;28;45479;-77
2022/07/14 14:06:50;;;;;;;;;3.00;3.00;;;;;;;;5077720;28;46079;-76
2022/07/14 14:09:16;;;;;;;;;6.33;5.00;;;;;;;;5077932;28;45358;-77
2022/07/14 14:11:42;;;;;;;;;4.00;4.00;;;;;;;;5077169;28;45403;-75
2022/07/14 14:14:08;;;;;;;;;5.00;5.00;;;;;;;;5078193;28;45548;-76
2022/07/14 14:16:33;;;;;;;;;6.33;5.33;;;;;;;;5077249;28;46336;-77
2022/07/14 14:18:59;;;;;;;;;6.00;5.00;;;;;;;;5077607;28;45302;-77
2022/07/14 14:21:24;;;;;;;;;6.00;4.33;;;;;;;;5077798;28;45441;-77
2022/07/14 14:23:49;;;;;;;;;5.00;5.00;;;;;;;;5077181;28;45395;-77
2022/07/14 14:26:15;;;;;;;;;9.00;6.67;;;;;;;;5077497;28;46169;-75
2022/07/14 14:28:40;;;;;;;;;3.67;3.67;;;;;;;;5077394;28;45390;-77
2022/07/14 14:31:06;;;;;;;;;3.33;3.33;;;;;;;;5077951;28;45378;-76
2022/07/14 14:33:31;;;;;;;;;4.00;2.67;;;;;;;;5077387;28;45660;-75
2022/07/14 14:35:57;;;;;;;;;6.00;4.00;;;;;;;;5077442;28;46122;-76
2022/07/14 14:38:22;;;;;;;;;5.00;4.00;;;;;;;;5077742;28;45537;-75
2022/07/14 14:40:48;;;;;;;;;5.00;4.00;;;;;;;;5077472;28;45343;-75
2022/07/14 14:43:13;;;;;;;;;3.00;3.00;;;;;;;;5077437;28;45421;-76
2022/07/14 14:45:42;;;;;;;;;4.00;2.67;;;;;;;;5077320;28;46590;-77
2022/07/14 14:48:08;;;;;;;;;3.00;3.00;;;;;;;;5077223;28;45449;-76